createdAt,value
2022-11-21T00:00:43.964Z,1.97
2022-11-21T00:03:11.458Z,1.50
2022-11-21T00:05:42.619Z,2.00
2022-11-21T00:08:10.985Z,1.93
2022-11-21T00:10:38.903Z,2.20
2022-11-21T00:13:06.597Z,1.70
2022-11-21T00:15:34.131Z,2.00
2022-11-21T00:18:02.742Z,1.97
2022-11-21T00:20:29.865Z,2.03
2022-11-21T00:22:56.974Z,1.67
2022-11-21T00:25:24.091Z,1.80
2022-11-21T00:27:51.213Z,1.87
2022-11-21T00:30:18.335Z,1.57
2022-11-21T00:32:45.416Z,1.50
2022-11-21T00:35:12.861Z,1.43
2022-11-21T00:37:39.997Z,1.70
2022-11-21T00:40:07.343Z,2.10
2022-11-21T00:42:34.472Z,1.60
2022-11-21T00:45:01.590Z,1.50
2022-11-21T00:47:28.806Z,1.70
2022-11-21T00:49:55.872Z,1.67
2022-11-21T00:52:22.987Z,1.50
2022-11-21T00:54:50.099Z,1.87
2022-11-21T00:57:17.194Z,1.60
2022-11-21T00:59:44.335Z,1.67
2022-11-21T01:02:11.461Z,1.70
2022-11-21T01:04:38.658Z,1.57
2022-11-21T01:07:05.807Z,1.80
2022-11-21T01:09:32.951Z,1.50
2022-11-21T01:12:00.080Z,1.90
2022-11-21T01:14:27.519Z,1.70
2022-11-21T01:16:54.848Z,1.60
2022-11-21T01:19:22.009Z,1.70
2022-11-21T01:21:49.114Z,1.80
2022-11-21T01:24:16.242Z,1.90
2022-11-21T01:26:43.344Z,1.33
2022-11-21T01:29:10.440Z,1.50
2022-11-21T01:31:37.521Z,1.50
2022-11-21T01:34:04.634Z,1.30
2022-11-21T01:36:32.788Z,1.33
2022-11-21T01:39:01.050Z,1.30
2022-11-21T01:41:31.380Z,1.50
2022-11-21T01:43:58.867Z,1.40
2022-11-21T01:46:26.200Z,1.33
2022-11-21T01:48:53.331Z,1.20
2022-11-21T01:51:32.518Z,1.40
2022-11-21T01:54:09.322Z,1.40
2022-11-21T01:56:41.659Z,1.17
2022-11-21T01:59:09.757Z,1.40
2022-11-21T02:01:37.541Z,1.20
2022-11-21T02:04:05.901Z,1.00
2022-11-21T02:06:34.448Z,1.10
2022-11-21T02:09:01.793Z,0.97
2022-11-21T02:11:36.041Z,1.23
2022-11-21T02:14:03.214Z,1.00
2022-11-21T02:16:30.474Z,1.10
2022-11-21T02:18:57.681Z,1.07
2022-11-21T02:21:33.304Z,1.40
2022-11-21T02:24:06.578Z,1.27
2022-11-21T02:26:34.227Z,1.30
2022-11-21T02:29:01.428Z,1.10
2022-11-21T02:31:28.528Z,1.23
2022-11-21T02:33:55.643Z,1.13
2022-11-21T02:36:49.160Z,1.20
2022-11-21T02:39:21.979Z,1.20
2022-11-21T02:42:02.238Z,1.73
2022-11-21T02:44:34.744Z,1.57
2022-11-21T02:47:01.923Z,1.53
2022-11-21T02:49:32.474Z,1.70
2022-11-21T02:51:59.617Z,2.00
2022-11-21T02:54:27.030Z,1.87
2022-11-21T02:56:54.308Z,1.87
2022-11-21T02:59:21.511Z,2.10
2022-11-21T03:01:48.629Z,2.53
2022-11-21T03:04:15.706Z,2.03
2022-11-21T03:06:42.825Z,2.00
2022-11-21T03:09:09.981Z,2.07
2022-11-21T03:11:37.089Z,2.30
2022-11-21T03:14:04.225Z,2.17
2022-11-21T03:16:31.331Z,2.57
2022-11-21T03:18:58.639Z,2.17
2022-11-21T03:21:25.739Z,2.20
2022-11-21T03:23:52.910Z,2.20
2022-11-21T03:26:20.214Z,2.10
2022-11-21T03:28:47.341Z,2.17
2022-11-21T03:31:14.478Z,2.60
2022-11-21T03:33:41.570Z,2.20
2022-11-21T03:36:09.069Z,2.03
2022-11-21T03:38:36.292Z,2.43
2022-11-21T03:41:26.646Z,2.90
2022-11-21T03:43:53.864Z,2.13
2022-11-21T03:46:20.994Z,2.40
2022-11-21T03:48:48.071Z,2.30
2022-11-21T03:51:15.193Z,2.23
2022-11-21T03:53:42.318Z,1.93
2022-11-21T03:56:09.415Z,2.37
2022-11-21T03:58:36.660Z,2.30
2022-11-21T04:01:04.040Z,2.13
2022-11-21T04:03:31.141Z,2.27
2022-11-21T04:05:58.263Z,2.30
2022-11-21T04:08:25.427Z,2.43
2022-11-21T04:10:53.564Z,2.30
2022-11-21T04:13:21.220Z,2.00
2022-11-21T04:15:48.327Z,2.07
2022-11-21T04:18:15.418Z,2.07
2022-11-21T04:20:42.687Z,2.03
2022-11-21T04:23:09.991Z,1.90
2022-11-21T04:25:37.117Z,2.70
2022-11-21T04:28:05.004Z,2.03
2022-11-21T04:30:33.139Z,2.50
2022-11-21T04:33:00.216Z,2.13
2022-11-21T04:35:27.845Z,2.30
2022-11-21T04:37:55.084Z,2.00
2022-11-21T04:40:22.235Z,2.30
2022-11-21T04:42:49.401Z,2.00
2022-11-21T04:45:16.895Z,1.83
2022-11-21T04:47:45.216Z,2.27
2022-11-21T04:50:13.482Z,2.20
2022-11-21T04:52:40.616Z,2.20
2022-11-21T04:55:08.233Z,2.47
2022-11-21T04:57:35.855Z,2.00
2022-11-21T05:00:02.979Z,2.60
2022-11-21T05:02:30.083Z,2.23
2022-11-21T05:04:57.155Z,3.30
2022-11-21T05:07:24.290Z,2.30
2022-11-21T05:09:51.445Z,1.73
2022-11-21T05:12:37.167Z,1.90
2022-11-21T05:15:04.328Z,2.20
2022-11-21T05:17:31.756Z,2.20
2022-11-21T05:19:58.879Z,2.23
2022-11-21T05:22:25.986Z,1.90
2022-11-21T05:24:53.112Z,2.90
2022-11-21T05:27:20.211Z,2.00
2022-11-21T05:29:47.389Z,2.20
2022-11-21T05:32:14.551Z,1.93
2022-11-21T05:34:41.918Z,2.00
2022-11-21T05:37:09.066Z,2.20
2022-11-21T05:39:36.156Z,1.90
2022-11-21T05:42:03.530Z,1.90
2022-11-21T05:44:30.991Z,2.23
2022-11-21T05:46:58.303Z,2.10
2022-11-21T05:49:25.417Z,2.10
2022-11-21T05:51:52.531Z,1.90
2022-11-21T05:54:19.687Z,2.00
2022-11-21T05:56:46.790Z,1.83
2022-11-21T05:59:13.937Z,2.33
2022-11-21T06:01:59.858Z,2.40
2022-11-21T06:04:27.278Z,1.90
2022-11-21T06:06:54.657Z,1.93
2022-11-21T06:09:21.826Z,2.00
2022-11-21T06:11:48.933Z,1.90
2022-11-21T06:14:16.103Z,1.90
2022-11-21T06:16:43.241Z,2.60
2022-11-21T06:19:10.338Z,2.30
2022-11-21T06:21:37.533Z,2.20
2022-11-21T06:24:05.611Z,2.70
2022-11-21T06:26:32.707Z,2.20
2022-11-21T06:28:59.855Z,2.13
2022-11-21T06:31:27.561Z,1.73
2022-11-21T06:33:55.971Z,1.83
2022-11-21T06:36:23.096Z,1.93
2022-11-21T06:38:50.224Z,1.80
2022-11-21T06:41:21.449Z,2.00
2022-11-21T06:43:48.713Z,2.07
2022-11-21T06:46:16.186Z,1.90
2022-11-21T06:48:44.133Z,1.97
2022-11-21T06:51:17.978Z,2.10
2022-11-21T06:53:45.151Z,2.13
2022-11-21T06:56:12.562Z,1.70
2022-11-21T06:58:39.689Z,2.00
2022-11-21T07:01:07.946Z,1.77
2022-11-21T07:03:35.645Z,1.97
2022-11-21T07:06:03.457Z,1.73
2022-11-21T07:08:30.962Z,1.90
2022-11-21T07:11:24.090Z,2.00
2022-11-21T07:13:48.915Z,1.80
2022-11-21T07:16:16.027Z,1.80
2022-11-21T07:18:44.478Z,1.90
2022-11-21T07:21:11.669Z,1.50
2022-11-21T07:23:38.899Z,1.90
2022-11-21T07:26:07.485Z,1.37
2022-11-21T07:28:35.174Z,1.60
2022-11-21T07:31:05.936Z,1.77
2022-11-21T07:33:38.453Z,1.40
2022-11-21T07:36:05.723Z,2.17
2022-11-21T07:38:32.822Z,1.57
2022-11-21T07:40:59.938Z,1.67
2022-11-21T07:43:27.106Z,2.07
2022-11-21T07:45:54.219Z,2.20
2022-11-21T07:48:21.453Z,1.80
2022-11-21T07:50:48.639Z,1.87
2022-11-21T07:53:15.811Z,2.10
2022-11-21T07:55:42.938Z,2.00
2022-11-21T07:58:11.354Z,2.33
2022-11-21T08:00:39.739Z,1.97
2022-11-21T08:03:09.748Z,2.00
2022-11-21T08:05:37.716Z,2.03
2022-11-21T08:08:05.597Z,1.97
2022-11-21T08:10:32.770Z,1.97
2022-11-21T08:12:59.926Z,2.10
2022-11-21T08:15:27.075Z,1.93
2022-11-21T08:17:54.207Z,2.00
2022-11-21T08:20:21.370Z,1.77
2022-11-21T08:22:49.215Z,1.80
2022-11-21T08:25:16.359Z,2.07
2022-11-21T08:27:43.479Z,1.50
2022-11-21T08:30:11.878Z,1.77
2022-11-21T08:32:39.043Z,1.80
2022-11-21T08:35:06.424Z,1.67
2022-11-21T08:37:33.547Z,1.80
2022-11-21T08:40:00.915Z,1.80
2022-11-21T08:42:28.055Z,2.20
2022-11-21T08:44:55.186Z,1.70
2022-11-21T08:47:22.526Z,1.90
2022-11-21T08:49:49.646Z,1.73
2022-11-21T08:52:17.535Z,2.10
2022-11-21T08:54:45.370Z,2.00
2022-11-21T08:57:12.863Z,2.00
2022-11-21T08:59:40.030Z,1.70
2022-11-21T09:02:07.389Z,1.80
2022-11-21T09:04:34.562Z,1.60
2022-11-21T09:07:02.219Z,1.70
2022-11-21T09:09:29.367Z,1.90
2022-11-21T09:11:56.535Z,2.30
2022-11-21T09:14:42.421Z,2.10
2022-11-21T09:17:31.821Z,2.07
2022-11-21T09:19:59.219Z,2.00
2022-11-21T09:22:26.421Z,2.13
2022-11-21T09:24:53.564Z,2.10
2022-11-21T09:27:20.679Z,2.20
2022-11-21T09:29:53.654Z,1.70
2022-11-21T09:32:21.356Z,1.90
2022-11-21T09:34:48.539Z,2.00
2022-11-21T09:37:15.684Z,2.50
2022-11-21T09:39:42.808Z,2.30
2022-11-21T09:42:28.749Z,2.43
2022-11-21T09:45:05.058Z,2.57
2022-11-21T09:47:42.039Z,2.33
2022-11-21T09:50:15.399Z,2.50
2022-11-21T09:52:45.567Z,2.40
2022-11-21T09:55:22.003Z,2.70
2022-11-21T09:57:50.418Z,2.00
2022-11-21T10:00:22.022Z,2.30
2022-11-21T10:02:49.790Z,2.10
2022-11-21T10:05:17.370Z,2.37
2022-11-21T10:07:45.382Z,2.30
2022-11-21T10:10:29.973Z,2.33
2022-11-21T10:13:07.003Z,1.90
2022-11-21T10:15:41.942Z,1.87
2022-11-21T10:18:24.181Z,1.73
2022-11-21T10:20:51.332Z,2.10
2022-11-21T10:23:23.151Z,2.47
2022-11-21T10:26:10.213Z,2.30
2022-11-21T10:28:42.952Z,1.80
2022-11-21T10:31:12.230Z,2.30
2022-11-21T10:33:40.531Z,1.87
2022-11-21T10:36:13.404Z,2.03
2022-11-21T10:38:41.748Z,1.90
2022-11-21T10:41:17.934Z,1.93
2022-11-21T10:44:09.265Z,2.03
2022-11-21T10:46:36.360Z,1.87
2022-11-21T10:49:04.861Z,1.80
2022-11-21T10:51:44.765Z,1.60
2022-11-21T10:54:35.834Z,1.80
2022-11-21T10:57:07.474Z,1.63
2022-11-21T10:59:34.627Z,1.60
2022-11-21T11:02:22.856Z,1.67
2022-11-21T11:04:52.518Z,1.93
2022-11-21T11:07:21.923Z,2.00
2022-11-21T11:09:49.096Z,1.70
2022-11-21T11:12:46.575Z,1.73
2022-11-21T11:15:27.208Z,1.73
2022-11-21T11:17:59.141Z,1.80
2022-11-21T11:20:34.146Z,1.73
2022-11-21T11:23:01.271Z,1.70
2022-11-21T11:25:28.448Z,1.77
2022-11-21T11:27:56.191Z,1.50
2022-11-21T11:30:23.342Z,1.40
2022-11-21T11:32:50.459Z,1.40
2022-11-21T11:35:17.557Z,1.30
2022-11-21T11:37:51.496Z,1.97
2022-11-21T11:40:18.742Z,1.40
2022-11-21T11:43:24.076Z,1.70
2022-11-21T11:46:15.316Z,2.27
2022-11-21T11:49:11.050Z,1.70
2022-11-21T11:51:41.121Z,1.77
2022-11-21T11:54:11.847Z,1.70
2022-11-21T11:56:39.175Z,1.77
2022-11-21T11:59:35.434Z,1.90
2022-11-21T12:02:24.415Z,1.87
2022-11-21T12:04:51.535Z,4.30
2022-11-21T12:10:35.051Z,6.13
2022-11-21T12:13:05.134Z,3.60
2022-11-21T12:15:51.179Z,3.63
2022-11-21T12:18:21.407Z,3.97
2022-11-21T12:20:54.359Z,1.80
2022-11-21T12:23:23.915Z,1.60
2022-11-21T12:25:54.064Z,1.37
2022-11-21T12:28:26.552Z,1.60
2022-11-21T12:31:00.148Z,1.60
2022-11-21T12:33:27.439Z,1.30
2022-11-21T12:36:17.766Z,1.30
2022-11-21T12:39:05.898Z,1.40
2022-11-21T12:42:08.662Z,1.53
2022-11-21T12:44:55.186Z,1.17
2022-11-21T12:47:28.274Z,1.43
2022-11-21T12:50:27.466Z,1.30
2022-11-21T12:53:16.677Z,1.50
2022-11-21T12:55:43.899Z,1.50
2022-11-21T12:58:12.541Z,1.40
2022-11-21T13:00:39.680Z,1.40
2022-11-21T13:03:19.159Z,1.53
2022-11-21T13:05:51.361Z,1.53
2022-11-21T13:08:24.924Z,1.40
2022-11-21T13:11:25.857Z,1.27
2022-11-21T13:13:57.389Z,1.30
2022-11-21T13:16:39.512Z,1.37
2022-11-21T13:19:28.334Z,1.30
2022-11-21T13:21:55.688Z,1.43
2022-11-21T13:24:41.475Z,1.50
2022-11-21T13:27:08.625Z,1.27
2022-11-21T13:29:35.726Z,1.20
2022-11-21T13:32:22.786Z,1.40
2022-11-21T13:34:49.924Z,1.10
2022-11-21T13:37:36.979Z,1.23
2022-11-21T13:40:22.940Z,1.13
2022-11-21T13:43:32.099Z,0.90
2022-11-21T13:45:58.848Z,1.20
2022-11-21T13:48:31.992Z,1.10
2022-11-21T13:51:05.283Z,1.10
2022-11-21T13:53:56.492Z,1.30
2022-11-21T13:56:28.573Z,1.50
2022-11-21T13:59:09.883Z,1.27
2022-11-21T14:01:48.536Z,1.13
2022-11-21T14:04:31.131Z,0.97
2022-11-21T14:07:17.449Z,1.33
2022-11-21T14:09:49.577Z,1.53
2022-11-21T14:12:42.837Z,2.67
2022-11-21T14:15:18.559Z,1.80
2022-11-21T14:17:47.903Z,1.90
2022-11-21T14:20:15.140Z,2.00
2022-11-21T14:22:51.419Z,1.77
2022-11-21T14:25:20.540Z,1.53
2022-11-21T14:27:49.352Z,1.87
2022-11-21T14:30:35.175Z,3.07
2022-11-21T14:33:18.068Z,2.43
2022-11-21T14:35:48.427Z,2.87
2022-11-21T14:38:15.775Z,2.23
2022-11-21T14:40:42.925Z,2.37
2022-11-21T14:43:42.588Z,2.50
2022-11-21T14:46:16.318Z,3.80
2022-11-21T14:48:43.492Z,2.50
2022-11-21T14:51:11.874Z,1.97
2022-11-21T14:53:47.268Z,1.90
2022-11-21T14:56:27.887Z,1.97
2022-11-21T14:58:56.110Z,2.73
2022-11-21T15:01:30.432Z,1.90
2022-11-21T15:03:58.620Z,2.43
2022-11-21T15:06:30.075Z,1.93
2022-11-21T15:11:50.361Z,2.07
2022-11-21T15:14:17.669Z,1.70
2022-11-21T15:16:47.325Z,1.80
2022-11-21T15:19:20.084Z,1.90
2022-11-21T15:21:47.223Z,1.90
2022-11-21T15:24:18.141Z,1.90
2022-11-21T15:26:45.272Z,2.13
2022-11-21T15:29:22.677Z,2.10
2022-11-21T15:32:10.491Z,2.67
2022-11-21T15:34:41.389Z,2.70
2022-11-21T15:37:18.502Z,2.77
2022-11-21T15:39:46.419Z,2.50
2022-11-21T15:42:32.009Z,3.30
2022-11-21T15:45:00.747Z,4.00
2022-11-21T15:47:28.638Z,4.20
2022-11-21T15:49:56.045Z,4.00
2022-11-21T15:52:23.335Z,4.90
2022-11-21T15:54:50.525Z,6.67
2022-11-21T15:59:50.864Z,6.80
2022-11-21T16:02:18.171Z,6.00
2022-11-21T16:04:45.542Z,5.20
2022-11-21T16:07:12.717Z,4.50
2022-11-21T16:09:42.001Z,4.83
2022-11-21T16:12:09.737Z,5.20
2022-11-21T16:14:36.905Z,5.00
2022-11-21T16:17:04.007Z,4.77
2022-11-21T16:19:31.332Z,5.27
2022-11-21T16:21:58.647Z,5.30
2022-11-21T16:24:25.757Z,5.77
2022-11-21T16:26:54.631Z,5.67
2022-11-21T16:29:21.852Z,5.87
2022-11-21T16:31:51.716Z,5.90
2022-11-21T16:34:19.581Z,6.03
2022-11-21T16:36:46.924Z,6.90
2022-11-21T16:39:18.182Z,6.90
2022-11-21T16:41:46.659Z,7.57
2022-11-21T16:44:14.849Z,7.57
2022-11-21T16:46:42.734Z,10.50
2022-11-21T16:49:10.428Z,9.57
2022-11-21T16:51:37.899Z,11.63
2022-11-21T16:54:08.842Z,7.50
2022-11-21T16:56:36.732Z,7.90
2022-11-21T16:59:03.877Z,7.67
2022-11-21T17:01:31.167Z,9.30
2022-11-21T17:03:58.402Z,10.37
2022-11-21T17:06:27.184Z,12.70
2022-11-21T17:08:54.584Z,14.70
2022-11-21T17:11:23.431Z,16.63
2022-11-21T17:13:51.463Z,14.10
2022-11-21T17:16:19.855Z,9.60
2022-11-21T17:18:46.994Z,9.10
2022-11-21T17:21:15.449Z,8.77
2022-11-21T17:23:43.505Z,9.03
2022-11-21T17:26:15.055Z,8.50
2022-11-21T17:28:45.654Z,8.17
2022-11-21T17:31:14.372Z,7.53
2022-11-21T17:33:41.867Z,8.13
2022-11-21T17:36:12.738Z,8.43
2022-11-21T17:38:40.087Z,7.57
2022-11-21T17:41:08.216Z,8.13
2022-11-21T17:43:35.373Z,7.83
2022-11-21T17:46:09.401Z,8.40
2022-11-21T17:48:37.670Z,9.63
2022-11-21T17:51:25.580Z,9.57
2022-11-21T17:53:53.136Z,10.60
2022-11-21T17:56:21.304Z,8.83
2022-11-21T17:58:48.453Z,8.53
2022-11-21T18:01:19.638Z,8.57
2022-11-21T18:03:47.723Z,10.00
2022-11-21T18:06:16.196Z,9.03
2022-11-21T18:08:44.611Z,8.33
2022-11-21T18:11:12.612Z,8.13
2022-11-21T18:13:40.210Z,8.33
2022-11-21T18:16:14.822Z,14.90
2022-11-21T18:18:42.523Z,11.17
2022-11-21T18:21:11.469Z,8.90
2022-11-21T18:23:38.670Z,9.83
2022-11-21T18:26:06.835Z,9.10
2022-11-21T18:28:34.235Z,9.40
2022-11-21T18:31:21.023Z,9.93
2022-11-21T18:33:55.712Z,10.90
2022-11-21T18:36:23.260Z,12.90
2022-11-21T18:38:56.480Z,11.50
2022-11-21T18:41:30.524Z,10.63
2022-11-21T18:44:01.758Z,10.90
2022-11-21T18:46:29.846Z,10.50
2022-11-21T18:49:12.723Z,10.30
2022-11-21T18:51:39.893Z,10.50
2022-11-21T18:54:09.629Z,10.27
2022-11-21T18:56:37.637Z,11.00
2022-11-21T18:59:06.767Z,11.93
2022-11-21T19:01:34.706Z,11.53
2022-11-21T19:04:01.994Z,10.80
2022-11-21T19:06:29.246Z,11.20
2022-11-21T19:08:58.033Z,10.97
2022-11-21T19:11:26.760Z,11.73
2022-11-21T19:13:54.646Z,11.83
2022-11-21T19:16:24.662Z,11.40
2022-11-21T19:21:41.354Z,10.40
2022-11-21T19:24:13.161Z,12.63
2022-11-21T19:26:40.605Z,13.07
2022-11-21T19:29:07.755Z,12.90
2022-11-21T19:31:39.082Z,19.27
2022-11-21T19:34:10.047Z,14.17
2022-11-21T19:36:37.240Z,10.00
2022-11-21T19:39:04.370Z,9.93
2022-11-21T19:41:31.473Z,10.67
2022-11-21T19:43:59.874Z,9.53
2022-11-21T19:46:28.130Z,10.13
2022-11-21T19:48:56.202Z,10.20
2022-11-21T19:51:24.941Z,9.60
2022-11-21T19:53:52.131Z,10.20
2022-11-21T19:56:19.255Z,11.10
2022-11-21T19:58:46.631Z,10.53
2022-11-21T20:01:14.794Z,10.93
2022-11-21T20:03:43.267Z,10.40
2022-11-21T20:06:18.040Z,10.47
2022-11-21T20:08:46.028Z,10.50
2022-11-21T20:11:15.541Z,10.10
2022-11-21T20:13:43.960Z,10.83
2022-11-21T20:16:18.840Z,10.90
2022-11-21T20:18:46.478Z,10.97
2022-11-21T20:21:14.059Z,10.07
2022-11-21T20:23:41.395Z,11.40
2022-11-21T20:26:09.017Z,13.33
2022-11-21T20:28:37.064Z,13.23
2022-11-21T20:31:11.947Z,13.50
2022-11-21T20:33:39.984Z,14.93
2022-11-21T20:36:16.929Z,14.30
2022-11-21T20:38:44.653Z,11.77
2022-11-21T20:41:11.760Z,11.80
2022-11-21T20:44:24.590Z,10.23
2022-11-21T20:46:26.503Z,10.30
2022-11-21T20:48:54.076Z,11.53
2022-11-21T20:52:31.473Z,11.07
2022-11-21T20:54:08.297Z,11.20
2022-11-21T20:56:36.642Z,12.73
2022-11-21T20:59:04.785Z,14.43
2022-11-21T21:01:34.578Z,14.73
2022-11-21T21:04:01.786Z,12.60
2022-11-21T21:06:29.030Z,17.17
2022-11-21T21:08:56.345Z,17.87
2022-11-21T21:11:50.901Z,16.83
2022-11-21T21:14:11.483Z,17.00
2022-11-21T21:16:38.578Z,15.80
2022-11-21T21:19:05.807Z,16.60
2022-11-21T21:21:32.933Z,17.03
2022-11-21T21:24:01.571Z,17.97
2022-11-21T21:26:38.640Z,16.70
2022-11-21T21:29:08.836Z,17.00
2022-11-21T21:31:35.968Z,15.27
2022-11-21T21:34:03.140Z,14.63
2022-11-21T21:36:32.053Z,15.83
2022-11-21T21:38:59.821Z,14.03
2022-11-21T21:41:27.793Z,14.67
2022-11-21T21:43:55.555Z,13.77
2022-11-21T21:46:23.567Z,13.50
2022-11-21T21:48:52.595Z,14.00
2022-11-21T21:51:21.742Z,12.53
2022-11-21T21:53:49.817Z,12.47
2022-11-21T21:56:17.991Z,11.23
2022-11-21T21:58:45.977Z,12.03
2022-11-21T22:01:14.588Z,12.07
2022-11-21T22:03:42.261Z,12.77
2022-11-21T22:06:10.285Z,11.87
2022-11-21T22:08:38.243Z,10.63
2022-11-21T22:11:06.340Z,10.03
2022-11-21T22:13:33.618Z,10.70
2022-11-21T22:16:01.610Z,11.97
2022-11-21T22:18:29.240Z,12.20
2022-11-21T22:20:56.649Z,11.13
2022-11-21T22:23:24.042Z,11.97
2022-11-21T22:25:55.135Z,18.30
2022-11-21T22:28:22.252Z,13.80
2022-11-21T22:30:54.483Z,14.80
2022-11-21T22:33:21.603Z,15.43
2022-11-21T22:35:48.697Z,11.90
2022-11-21T22:38:16.460Z,10.83
2022-11-21T22:40:44.034Z,10.90
2022-11-21T22:43:11.291Z,10.77
2022-11-21T22:45:38.469Z,10.30
2022-11-21T22:48:06.008Z,10.13
2022-11-21T22:50:33.604Z,9.57
2022-11-21T22:53:00.743Z,9.60
2022-11-21T22:55:27.875Z,9.03
2022-11-21T22:57:54.984Z,9.03
2022-11-21T23:00:22.132Z,9.00
2022-11-21T23:02:49.279Z,8.20
2022-11-21T23:05:16.383Z,8.37
2022-11-21T23:07:44.930Z,8.33
2022-11-21T23:10:12.759Z,8.00
2022-11-21T23:12:39.878Z,7.73
2022-11-21T23:15:07.171Z,8.43
2022-11-21T23:17:34.311Z,7.63
2022-11-21T23:20:01.400Z,8.33
2022-11-21T23:22:28.487Z,7.17
2022-11-21T23:24:55.579Z,7.40
2022-11-21T23:27:22.711Z,7.50
2022-11-21T23:29:49.813Z,7.50
2022-11-21T23:32:17.081Z,7.60
2022-11-21T23:34:44.195Z,8.20
2022-11-21T23:37:11.469Z,7.10
2022-11-21T23:39:38.570Z,6.73
2022-11-21T23:42:05.731Z,7.20
2022-11-21T23:44:32.864Z,7.20
2022-11-21T23:46:59.962Z,6.83
2022-11-21T23:49:27.240Z,7.13
2022-11-21T23:51:54.578Z,7.87
2022-11-21T23:54:21.664Z,7.80
2022-11-21T23:56:48.811Z,8.27
2022-11-21T23:59:15.936Z,7.63
